Time;durP1;ratioP1;P1;durP2;ratioP2;P2;SDS_P1;SDS_P2;PMS_P1;PMS_P2;Temp;Humidity;BMP_temperature;BMP_pressure;BME280_temperature;BME280_humidity;BME280_pressure;Samples;Min_cycle;Max_cycle;Signal;HPM_P1;HPM_P2
2022/05/10 00:00:31;;;;;;;18.17;11.52;;;10.60;99.90;;;;;;5092693;28;20086;-74
2022/05/10 00:02:59;;;;;;;17.40;11.95;;;10.70;99.90;;;;;;5075175;28;20094;-76
2022/05/10 00:05:36;;;;;;;19.75;10.65;;;10.70;99.90;;;;;;5074856;28;20100;-76
2022/05/10 00:08:06;;;;;;;15.93;10.50;;;10.80;99.90;;;;;;5074946;28;20040;-77
2022/05/10 00:10:34;;;;;;;22.42;10.98;;;10.90;99.90;;;;;;5089109;28;20063;-75
2022/05/10 00:13:00;;;;;;;18.63;10.38;;;10.90;99.90;;;;;;5092310;28;20040;-75
2022/05/10 00:15:26;;;;;;;16.55;11.10;;;10.90;99.90;;;;;;5074570;28;20040;-75
2022/05/10 00:17:52;;;;;;;19.58;11.40;;;11.00;99.90;;;;;;5092279;28;20427;-76
2022/05/10 00:20:23;;;;;;;17.13;10.48;;;11.00;99.90;;;;;;5074549;28;20040;-76
2022/05/10 00:22:49;;;;;;;19.80;10.13;;;11.10;99.90;;;;;;5092289;28;20076;-76
2022/05/10 00:25:20;;;;;;;15.18;10.77;;;11.20;99.90;;;;;;5092700;28;20055;-75
2022/05/10 00:27:46;;;;;;;21.05;10.45;;;11.20;99.90;;;;;;5092108;28;20488;-76
2022/05/10 00:30:14;;;;;;;15.38;9.75;;;11.20;99.90;;;;;;5074876;28;20040;-76
2022/05/10 00:32:41;;;;;;;19.90;10.75;;;11.20;99.90;;;;;;5074665;28;20357;-76
2022/05/10 00:35:15;;;;;;;19.42;11.30;;;11.30;99.90;;;;;;5074748;28;20185;-74
2022/05/10 00:37:43;;;;;;;19.45;11.45;;;11.30;99.90;;;;;;5091919;28;20055;-75
2022/05/10 00:40:09;;;;;;;18.50;11.23;;;11.30;99.90;;;;;;5092391;28;20131;-75
2022/05/10 00:42:45;;;;;;;18.88;10.82;;;11.30;99.90;;;;;;5074642;28;20145;-75
2022/05/10 00:45:16;;;;;;;16.45;10.32;;;11.40;99.90;;;;;;5092157;28;20057;-76
2022/05/10 00:47:55;;;;;;;17.02;10.32;;;11.40;99.90;;;;;;5074503;28;20040;-75
2022/05/10 00:50:31;;;;;;;13.73;9.87;;;11.50;99.90;;;;;;5092059;28;20504;-76
2022/05/10 00:53:16;;;;;;;16.55;10.88;;;11.50;99.90;;;;;;5092261;28;20036;-75
2022/05/10 00:56:00;;;;;;;16.70;10.30;;;11.50;99.90;;;;;;5092078;28;20093;-74
2022/05/10 00:58:51;;;;;;;19.58;10.18;;;11.50;99.90;;;;;;5091702;28;20044;-74
2022/05/10 01:01:25;;;;;;;14.73;10.07;;;11.60;99.90;;;;;;5090977;28;20136;-75
2022/05/10 01:04:21;;;;;;;17.50;10.02;;;11.60;99.90;;;;;;5089629;28;20044;-75
2022/05/10 01:06:59;;;;;;;17.00;10.70;;;11.60;99.90;;;;;;5091608;28;20360;-74
2022/05/10 01:09:52;;;;;;;17.65;9.95;;;11.70;99.90;;;;;;5092115;28;20075;-75
2022/05/10 01:12:33;;;;;;;15.00;9.95;;;11.70;99.90;;;;;;5091818;28;20039;-74
2022/05/10 01:15:06;;;;;;;17.42;10.15;;;11.70;99.90;;;;;;5091838;28;20048;-75
2022/05/10 01:17:33;;;;;;;19.20;10.50;;;11.70;99.90;;;;;;5091957;28;20044;-74
2022/05/10 01:19:59;;;;;;;17.05;9.77;;;11.60;99.90;;;;;;5092029;28;20373;-74
2022/05/10 01:22:46;;;;;;;12.63;9.48;;;11.60;99.90;;;;;;5074273;28;20056;-74
2022/05/10 01:25:18;;;;;;;18.98;10.77;;;11.60;99.90;;;;;;5092790;28;20044;-75
2022/05/10 01:28:14;;;;;;;15.45;9.80;;;11.60;99.90;;;;;;5095374;28;20044;-75
2022/05/10 01:30:40;;;;;;;17.50;10.73;;;11.60;99.90;;;;;;5095646;28;20218;-74
2022/05/10 01:33:29;;;;;;;15.68;10.13;;;11.60;99.90;;;;;;5095473;28;20114;-75
2022/05/10 01:36:16;;;;;;;15.13;9.35;;;11.60;99.90;;;;;;5095233;28;20353;-75
2022/05/10 01:38:54;;;;;;;19.15;9.23;;;11.60;99.90;;;;;;5077910;28;20055;-76
2022/05/10 01:41:35;;;;;;;15.63;9.63;;;11.60;99.90;;;;;;5095271;28;20079;-76
2022/05/10 01:44:09;;;;;;;15.77;9.40;;;11.60;99.90;;;;;;5095210;28;20046;-75
2022/05/10 01:46:35;;;;;;;14.95;9.05;;;11.70;99.90;;;;;;5095165;28;20036;-74
2022/05/10 01:49:12;;;;;;;18.83;9.73;;;11.70;99.90;;;;;;5095112;28;20498;-76
2022/05/10 01:51:55;;;;;;;14.25;8.98;;;11.80;99.90;;;;;;5095120;28;20051;-76
2022/05/10 01:54:56;;;;;;;17.25;8.82;;;11.80;99.90;;;;;;5095092;28;20031;-75
2022/05/10 01:57:22;;;;;;;14.38;9.38;;;11.90;99.90;;;;;;5009478;28;20079;-74
2022/05/10 01:59:53;;;;;;;16.65;9.73;;;11.90;99.90;;;;;;5094993;28;20144;-75
2022/05/10 02:02:22;;;;;;;14.32;8.75;;;12.00;99.90;;;;;;5094855;28;20389;-75
2022/05/10 02:04:54;;;;;;;18.00;8.40;;;12.10;99.90;;;;;;5077341;28;20464;-76
2022/05/10 02:07:23;;;;;;;13.05;8.85;;;12.20;99.90;;;;;;5094588;28;20484;-75
2022/05/10 02:10:15;;;;;;;12.75;8.80;;;12.30;99.90;;;;;;5094926;28;20135;-75
2022/05/10 02:12:55;;;;;;;17.65;10.02;;;12.40;99.90;;;;;;5062068;28;20056;-75
2022/05/10 02:15:33;;;;;;;16.50;8.98;;;12.40;99.90;;;;;;5094661;28;20048;-75
2022/05/10 02:18:13;;;;;;;19.00;8.68;;;12.50;99.90;;;;;;5094672;28;20052;-76
2022/05/10 02:20:51;;;;;;;13.85;8.88;;;12.50;99.90;;;;;;5094426;28;20342;-75
2022/05/10 02:23:30;;;;;;;13.77;8.77;;;12.60;99.90;;;;;;5076912;28;20457;-76
2022/05/10 02:26:11;;;;;;;11.75;8.20;;;12.70;99.90;;;;;;5076999;28;20075;-74
2022/05/10 02:28:59;;;;;;;14.73;8.60;;;12.70;99.90;;;;;;5094496;28;20082;-74
2022/05/10 02:34:30;;;;;;;16.75;8.90;;;12.70;99.90;;;;;;5094171;28;20055;-74
2022/05/10 02:36:56;;;;;;;13.70;8.30;;;12.80;99.90;;;;;;5076207;28;20493;-75
2022/05/10 02:39:21;;;;;;;17.48;9.10;;;12.80;99.90;;;;;;5094273;28;20047;-75
2022/05/10 02:41:47;;;;;;;14.35;8.30;;;12.70;99.90;;;;;;5076717;28;20051;-76
2022/05/10 02:44:13;;;;;;;14.18;8.90;;;12.80;99.90;;;;;;5094027;28;20437;-76
2022/05/10 02:46:39;;;;;;;12.25;9.00;;;12.80;99.90;;;;;;5094047;28;20100;-74
2022/05/10 02:49:06;;;;;;;16.52;8.75;;;12.70;99.90;;;;;;5076157;28;20055;-75
2022/05/10 02:51:31;;;;;;;15.07;8.65;;;12.70;99.90;;;;;;5094149;28;20051;-74
2022/05/10 02:53:57;;;;;;;13.80;8.93;;;12.70;99.90;;;;;;5094012;28;20384;-75
2022/05/10 02:56:26;;;;;;;12.88;7.75;;;12.70;99.90;;;;;;5076293;28;20059;-75
2022/05/10 02:58:58;;;;;;;14.75;8.95;;;12.70;99.90;;;;;;5092010;28;20368;-76
2022/05/10 03:01:38;;;;;;;15.52;9.80;;;12.70;99.90;;;;;;5076119;28;20051;-75
2022/05/10 03:04:06;;;;;;;12.63;8.20;;;12.70;99.90;;;;;;5093582;28;20051;-75
2022/05/10 03:06:33;;;;;;;14.18;9.82;;;12.60;99.90;;;;;;5093808;28;20063;-74
2022/05/10 03:09:00;;;;;;;11.75;8.55;;;12.70;99.90;;;;;;5075851;28;20369;-74
2022/05/10 03:11:27;;;;;;;14.75;9.27;;;12.70;99.90;;;;;;5076191;28;20115;-75
2022/05/10 03:13:53;;;;;;;17.50;9.30;;;12.70;99.90;;;;;;5093395;28;20036;-75
2022/05/10 03:16:19;;;;;;;19.50;10.07;;;12.70;99.90;;;;;;5093562;28;20050;-74
2022/05/10 03:18:46;;;;;;;15.35;10.13;;;12.60;99.90;;;;;;5075818;28;20129;-74
2022/05/10 03:21:13;;;;;;;15.68;9.75;;;12.60;99.90;;;;;;5075249;28;20047;-76
2022/05/10 03:23:39;;;;;;;17.20;10.00;;;12.60;99.90;;;;;;5093369;28;20048;-74
2022/05/10 03:26:05;;;;;;;12.75;8.75;;;12.60;99.90;;;;;;5093163;28;20051;-76
2022/05/10 03:28:31;;;;;;;15.57;9.90;;;12.60;99.90;;;;;;5092950;28;20461;-74
2022/05/10 03:30:58;;;;;;;14.32;9.10;;;12.60;99.90;;;;;;5093400;28;20048;-75
2022/05/10 03:33:23;;;;;;;15.95;8.73;;;12.70;99.90;;;;;;5093150;28;20040;-75
2022/05/10 03:35:49;;;;;;;14.30;9.65;;;12.70;99.90;;;;;;5075648;28;20453;-76
2022/05/10 03:38:15;;;;;;;16.83;9.07;;;12.70;99.90;;;;;;5093043;28;20043;-75
2022/05/10 03:40:42;;;;;;;16.50;9.63;;;12.80;99.90;;;;;;5075299;28;20040;-75
2022/05/10 03:43:09;;;;;;;18.58;10.80;;;12.80;99.90;;;;;;5092653;28;20427;-74
2022/05/10 03:45:35;;;;;;;14.07;10.02;;;12.90;99.90;;;;;;5092908;28;20044;-74
2022/05/10 03:48:01;;;;;;;13.52;9.43;;;12.80;99.90;;;;;;5092584;28;20477;-74
2022/05/10 03:50:27;;;;;;;19.38;10.45;;;12.80;99.90;;;;;;5092063;28;20051;-76
2022/05/10 03:52:53;;;;;;;15.32;10.15;;;12.80;99.90;;;;;;5075059;28;20071;-76
2022/05/10 03:55:23;;;;;;;16.58;9.77;;;12.80;99.90;;;;;;5093111;28;20077;-75
2022/05/10 03:57:51;;;;;;;13.60;9.90;;;12.90;99.90;;;;;;5074812;28;20472;-75
2022/05/10 04:00:21;;;;;;;16.77;10.55;;;12.90;99.90;;;;;;5075298;28;20075;-74
2022/05/10 04:02:47;;;;;;;17.08;11.05;;;12.80;99.90;;;;;;5092801;28;20044;-75
2022/05/10 04:05:14;;;;;;;17.60;11.10;;;12.80;99.90;;;;;;5089328;28;20067;-75
2022/05/10 04:07:40;;;;;;;16.20;10.75;;;12.80;99.90;;;;;;5092429;28;20056;-75
2022/05/10 04:10:08;;;;;;;17.92;9.88;;;12.80;99.90;;;;;;5074767;28;20084;-75
2022/05/10 04:12:36;;;;;;;19.83;10.70;;;12.80;99.90;;;;;;5092372;28;20043;-74
2022/05/10 04:15:02;;;;;;;16.75;10.63;;;12.90;99.90;;;;;;5092556;28;20385;-74
2022/05/10 04:17:28;;;;;;;15.93;10.25;;;12.90;99.90;;;;;;5074759;28;20415;-75
2022/05/10 04:19:54;;;;;;;21.45;11.35;;;12.90;99.90;;;;;;5074339;28;20126;-75
2022/05/10 04:22:19;;;;;;;13.98;10.40;;;12.90;99.90;;;;;;5092218;28;20044;-75
2022/05/10 04:24:46;;;;;;;18.98;11.23;;;12.90;99.90;;;;;;5092060;28;20053;-75
2022/05/10 04:27:12;;;;;;;16.90;10.50;;;13.00;99.90;;;;;;5092149;28;20512;-75
2022/05/10 04:29:38;;;;;;;17.80;10.13;;;13.00;99.90;;;;;;5091984;28;20127;-75
2022/05/10 04:32:04;;;;;;;17.42;10.80;;;13.10;99.90;;;;;;5092272;28;20075;-74
2022/05/10 04:34:29;;;;;;;20.15;11.40;;;13.10;99.90;;;;;;5092201;28;20044;-75
2022/05/10 04:36:55;;;;;;;19.63;10.95;;;13.10;99.90;;;;;;5092175;28;20102;-75
2022/05/10 04:39:21;;;;;;;16.85;11.07;;;13.20;99.90;;;;;;5091988;28;20036;-76
2022/05/10 04:41:50;;;;;;;17.70;11.77;;;13.20;99.90;;;;;;5092106;28;20082;-74
2022/05/10 04:44:16;;;;;;;16.67;11.70;;;13.30;99.90;;;;;;5092223;28;20062;-77
2022/05/10 04:46:42;;;;;;;14.13;10.05;;;13.30;99.90;;;;;;5092200;28;20457;-75
2022/05/10 04:49:12;;;;;;;17.30;10.55;;;13.40;99.90;;;;;;5091937;28;20453;-75
2022/05/10 04:51:39;;;;;;;17.35;10.77;;;13.50;99.90;;;;;;5092080;28;20101;-75
2022/05/10 04:54:05;;;;;;;16.15;10.65;;;13.50;99.90;;;;;;5091810;28;20078;-74
2022/05/10 04:56:31;;;;;;;14.50;10.23;;;13.60;99.90;;;;;;5092156;28;20108;-75
2022/05/10 04:58:57;;;;;;;15.02;10.55;;;13.70;99.90;;;;;;5091881;28;20047;-74
2022/05/10 05:01:28;;;;;;;14.55;10.68;;;13.80;99.90;;;;;;5077203;28;20076;-76
2022/05/10 05:03:59;;;;;;;20.17;11.07;;;13.90;99.90;;;;;;5096291;28;20051;-75
2022/05/10 05:06:26;;;;;;;14.77;10.13;;;13.90;99.90;;;;;;5095871;28;20079;-75
2022/05/10 05:08:52;;;;;;;13.63;9.82;;;14.00;99.90;;;;;;5095801;28;20257;-75
2022/05/10 05:11:18;;;;;;;22.42;11.05;;;14.00;99.90;;;;;;5096081;28;20047;-75
2022/05/10 05:13:44;;;;;;;15.20;9.55;;;14.10;99.90;;;;;;5095621;28;20354;-75
2022/05/10 05:16:10;;;;;;;16.48;10.65;;;14.20;99.90;;;;;;5095730;28;20055;-76
2022/05/10 05:18:36;;;;;;;15.52;9.57;;;14.30;99.90;;;;;;5095708;28;20043;-74
2022/05/10 05:21:02;;;;;;;16.83;10.75;;;14.40;99.90;;;;;;5095321;28;20056;-76
2022/05/10 05:23:28;;;;;;;14.85;9.82;;;14.40;99.90;;;;;;5095662;28;20052;-75
2022/05/10 05:25:55;;;;;;;17.05;10.55;;;14.50;99.90;;;;;;5095551;28;20048;-77
2022/05/10 05:28:22;;;;;;;19.38;10.60;;;14.60;99.90;;;;;;5095461;28;20460;-76
2022/05/10 05:30:50;;;;;;;15.93;10.27;;;14.60;99.90;;;;;;5095614;28;20127;-74
2022/05/10 05:33:16;;;;;;;15.38;9.93;;;14.70;99.90;;;;;;5095428;28;20051;-75
2022/05/10 05:35:42;;;;;;;13.30;8.55;;;14.80;99.90;;;;;;5077843;28;20044;-76
2022/05/10 05:38:08;;;;;;;17.83;9.50;;;14.80;99.90;;;;;;5095270;28;20044;-75
2022/05/10 05:40:36;;;;;;;11.85;9.27;;;14.90;99.90;;;;;;5077913;28;20134;-75
2022/05/10 05:43:01;;;;;;;14.82;9.25;;;14.90;99.90;;;;;;5077798;28;20044;-75
2022/05/10 05:45:28;;;;;;;15.98;9.80;;;15.00;99.90;;;;;;5095186;28;20044;-76
2022/05/10 05:47:54;;;;;;;14.07;9.55;;;15.10;99.90;;;;;;5077714;28;20111;-76
2022/05/10 05:50:23;;;;;;;15.43;9.88;;;15.10;99.90;;;;;;5094950;28;20047;-75
2022/05/10 05:52:50;;;;;;;13.23;9.35;;;15.20;99.90;;;;;;5095348;28;20055;-74
2022/05/10 05:55:17;;;;;;;15.13;10.02;;;15.20;99.90;;;;;;5095085;28;20062;-74
2022/05/10 05:57:43;;;;;;;14.02;10.05;;;15.40;99.90;;;;;;5092071;28;20043;-74
2022/05/10 06:00:16;;;;;;;15.18;9.98;;;15.50;99.90;;;;;;5094875;28;20054;-74
2022/05/10 06:02:42;;;;;;;14.30;8.57;;;15.60;99.90;;;;;;5094851;28;20047;-75
2022/05/10 06:05:09;;;;;;;13.90;9.73;;;15.70;99.90;;;;;;5077174;28;20079;-75
2022/05/10 06:07:34;;;;;;;15.27;9.45;;;15.80;99.90;;;;;;5094926;28;20129;-75
2022/05/10 06:10:00;;;;;;;16.38;9.00;;;15.90;99.90;;;;;;5094836;28;20468;-75
2022/05/10 06:12:26;;;;;;;14.05;9.35;;;16.00;99.90;;;;;;5093643;28;20055;-74
2022/05/10 06:14:52;;;;;;;13.05;8.93;;;16.10;99.90;;;;;;5094473;28;20040;-74
2022/05/10 06:17:18;;;;;;;9.45;7.60;;;16.20;99.90;;;;;;5094631;28;20186;-75
2022/05/10 06:19:45;;;;;;;13.68;9.15;;;16.30;99.90;;;;;;5094218;28;20138;-74
2022/05/10 06:22:12;;;;;;;12.02;8.73;;;16.40;99.90;;;;;;5077151;28;20048;-75
2022/05/10 06:24:38;;;;;;;13.00;7.90;;;16.50;99.90;;;;;;5073830;28;20075;-76
2022/05/10 06:27:06;;;;;;;13.23;8.18;;;16.50;99.90;;;;;;5094456;28;20338;-74
2022/05/10 06:29:33;;;;;;;11.57;8.20;;;16.60;99.90;;;;;;5091195;28;20343;-76
2022/05/10 06:31:59;;;;;;;13.95;8.02;;;16.60;99.90;;;;;;5095280;28;20036;-76
2022/05/10 06:34:25;;;;;;;12.25;8.05;;;16.70;99.90;;;;;;5095901;28;20043;-76
2022/05/10 06:36:50;;;;;;;9.93;7.20;;;16.80;99.90;;;;;;5096932;28;20051;-76
2022/05/10 06:39:16;;;;;;;14.27;8.35;;;16.90;99.90;;;;;;5096905;28;20091;-74
2022/05/10 06:41:42;;;;;;;10.20;7.03;;;17.10;99.90;;;;;;5079252;28;20089;-76
2022/05/10 06:44:08;;;;;;;11.73;6.38;;;17.20;99.90;;;;;;5096915;28;20051;-75
2022/05/10 06:46:35;;;;;;;9.57;6.35;;;17.20;99.90;;;;;;5096685;28;20048;-75
2022/05/10 06:49:04;;;;;;;10.20;6.75;;;17.40;99.90;;;;;;5096754;28;20052;-75
2022/05/10 06:51:30;;;;;;;8.80;5.70;;;17.60;99.90;;;;;;5096449;28;20071;-74
2022/05/10 06:53:56;;;;;;;8.27;5.65;;;17.70;99.90;;;;;;5078585;28;20063;-75
2022/05/10 06:56:22;;;;;;;11.18;6.10;;;17.90;99.90;;;;;;5095963;28;20048;-76
2022/05/10 06:58:48;;;;;;;12.45;6.25;;;18.10;99.90;;;;;;5096353;28;20076;-76
2022/05/10 07:01:15;;;;;;;7.78;5.68;;;18.30;99.90;;;;;;5078529;28;20036;-75
2022/05/10 07:03:45;;;;;;;8.45;5.68;;;18.30;99.90;;;;;;5078818;28;20036;-76
2022/05/10 07:06:12;;;;;;;9.25;5.72;;;18.40;99.90;;;;;;5095720;28;20398;-75
2022/05/10 07:08:39;;;;;;;10.95;6.25;;;18.40;99.90;;;;;;5096151;28;20055;-75
2022/05/10 07:11:05;;;;;;;11.32;4.97;;;18.50;99.90;;;;;;5096007;28;20044;-76
2022/05/10 07:13:32;;;;;;;10.80;6.05;;;18.60;99.90;;;;;;5092987;28;20054;-76
2022/05/10 07:15:58;;;;;;;8.30;5.03;;;18.60;99.90;;;;;;5095625;28;20048;-76
2022/05/10 07:18:25;;;;;;;11.68;5.43;;;18.70;99.90;;;;;;5095733;28;20449;-76
2022/05/10 07:20:52;;;;;;;7.60;5.38;;;18.70;99.90;;;;;;5095585;28;20449;-77
2022/05/10 07:23:22;;;;;;;10.20;4.65;;;18.80;99.90;;;;;;5095433;28;20044;-75
2022/05/10 07:25:49;;;;;;;7.88;4.45;;;18.90;99.90;;;;;;5092930;28;20062;-76
2022/05/10 07:28:16;;;;;;;9.73;5.07;;;19.00;99.90;;;;;;5095858;28;20058;-76
2022/05/10 07:30:43;;;;;;;8.43;4.45;;;19.00;99.90;;;;;;5078247;28;20056;-76
2022/05/10 07:33:09;;;;;;;8.38;4.50;;;19.00;99.90;;;;;;5096228;28;20051;-76
2022/05/10 07:38:19;;;;;;;10.45;5.95;;;19.00;99.90;;;;;;5095835;28;20155;-77
2022/05/10 07:40:48;;;;;;;15.65;5.57;;;19.00;99.90;;;;;;5095414;28;20040;-76
2022/05/10 07:43:15;;;;;;;8.95;4.88;;;19.00;99.90;;;;;;5095951;28;20046;-77
2022/05/10 07:45:43;;;;;;;10.95;4.97;;;19.00;99.90;;;;;;5078196;28;20346;-78
2022/05/10 07:48:09;;;;;;;12.68;5.65;;;19.10;99.90;;;;;;5095722;28;20040;-76
2022/05/10 07:50:35;;;;;;;12.95;5.32;;;19.10;99.90;;;;;;5095885;28;20429;-77
2022/05/10 07:53:06;;;;;;;7.70;4.47;;;19.20;99.90;;;;;;5077298;28;20122;-78
2022/05/10 07:55:36;;;;;;;10.05;4.90;;;19.20;99.90;;;;;;5095046;28;20048;-78
2022/05/10 07:58:05;;;;;;;;;;;19.20;99.90;;;;;;5094351;28;20357;-76
2022/05/10 08:00:32;;;;;;;8.40;4.85;;;19.20;99.90;;;;;;5095362;28;19916;-76
2022/05/10 08:02:58;;;;;;;9.52;4.78;;;19.30;99.90;;;;;;5095282;28;20036;-76
2022/05/10 08:05:25;;;;;;;7.90;4.60;;;19.30;99.90;;;;;;5095322;28;20123;-77
2022/05/10 08:07:51;;;;;;;7.20;4.85;;;19.40;99.90;;;;;;5095147;28;20083;-76
2022/05/10 08:10:19;;;;;;;8.93;4.78;;;19.40;99.90;;;;;;5077881;28;20044;-77
2022/05/10 08:12:45;;;;;;;8.88;4.43;;;19.50;99.90;;;;;;5077794;28;20075;-77
2022/05/10 08:15:11;;;;;;;7.72;4.10;;;19.50;99.90;;;;;;5095022;28;20048;-75
2022/05/10 08:17:38;;;;;;;9.98;4.20;;;19.70;99.90;;;;;;5095367;28;20040;-79
2022/05/10 08:20:05;;;;;;;9.70;4.18;;;19.80;99.90;;;;;;5095544;28;20052;-76
2022/05/10 08:22:31;;;;;;;7.95;4.28;;;19.90;99.90;;;;;;5077367;28;20122;-75
2022/05/10 08:24:58;;;;;;;7.88;3.80;;;20.00;99.90;;;;;;5077978;28;20098;-76
2022/05/10 08:27:24;;;;;;;8.60;4.28;;;20.00;99.90;;;;;;5095439;28;20329;-77
2022/05/10 08:29:50;;;;;;;8.98;4.00;;;20.00;99.90;;;;;;5095090;28;20422;-78
2022/05/10 08:32:16;;;;;;;6.15;3.83;;;20.20;99.90;;;;;;5077594;28;20044;-78
2022/05/10 08:34:42;;;;;;;7.78;3.95;;;20.20;99.90;;;;;;5077426;28;20036;-77
2022/05/10 08:37:08;;;;;;;6.43;3.95;;;20.30;99.90;;;;;;5094711;28;20454;-78
2022/05/10 08:39:34;;;;;;;8.23;4.07;;;20.40;99.90;;;;;;5092780;28;20058;-77
2022/05/10 08:42:25;;;;;;;5.75;3.45;;;20.50;99.90;;;;;;5071448;28;20115;-79
2022/05/10 08:44:56;;;;;;;11.23;4.95;;;20.60;99.90;;;;;;5075099;28;20052;-78
2022/05/10 08:47:24;;;;;;;7.78;4.53;;;20.60;99.90;;;;;;5073404;28;20103;-77
2022/05/10 08:49:57;;;;;;;8.90;4.32;;;20.70;99.90;;;;;;5077123;28;20127;-77
2022/05/10 08:52:33;;;;;;;10.88;4.40;;;20.70;99.90;;;;;;5095025;28;20445;-77
2022/05/10 08:54:59;;;;;;;6.85;4.68;;;20.80;99.90;;;;;;5077682;28;20124;-77
2022/05/10 08:57:46;;;;;;;8.70;4.88;;;20.80;99.90;;;;;;5077515;28;20081;-86
2022/05/10 09:00:27;;;;;;;8.50;5.40;;;21.00;99.90;;;;;;5057296;28;20052;-77
2022/05/10 09:02:56;;;;;;;12.32;5.57;;;21.10;99.90;;;;;;5057377;28;20044;-78
2022/05/10 09:05:42;;;;;;;9.05;5.43;;;21.20;99.90;;;;;;5075023;28;20055;-78
2022/05/10 09:08:25;;;;;;;10.93;5.28;;;21.20;99.90;;;;;;5075027;28;20032;-77
2022/05/10 09:10:59;;;;;;;9.80;5.22;;;21.30;99.90;;;;;;5073360;28;20194;-77
2022/05/10 09:13:24;;;;;;;10.65;4.93;;;21.50;99.90;;;;;;5074292;28;20053;-79
2022/05/10 09:15:58;;;;;;;9.88;5.32;;;21.60;99.90;;;;;;5057427;28;20166;-78
2022/05/10 09:18:34;;;;;;;11.77;5.53;;;21.70;98.90;;;;;;5056986;28;20032;-77
2022/05/10 09:21:11;;;;;;;9.00;5.78;;;21.90;99.40;;;;;;5056203;28;20099;-78
2022/05/10 09:24:04;;;;;;;10.13;5.70;;;22.00;98.30;;;;;;5071353;28;20524;-77
2022/05/10 09:26:38;;;;;;;11.95;5.70;;;22.00;99.20;;;;;;5071405;28;20098;-77
2022/05/10 09:29:10;;;;;;;14.30;6.57;;;22.00;97.70;;;;;;5054192;28;20452;-77
2022/05/10 09:37:31;;;;;;;11.02;5.25;;;21.80;97.70;;;;;;5070689;28;20079;-77
2022/05/10 09:39:57;;;;;;;9.77;6.05;;;21.80;96.90;;;;;;5053721;28;20121;-77
2022/05/10 09:42:38;;;;;;;9.52;5.88;;;21.70;97.10;;;;;;5054093;28;20449;-78
2022/05/10 09:45:23;;;;;;;14.98;6.63;;;21.70;97.90;;;;;;5085478;28;20043;-77
2022/05/10 09:48:02;;;;;;;10.07;6.18;;;21.70;98.30;;;;;;5094450;28;20044;-76
2022/05/10 09:50:39;;;;;;;9.27;5.53;;;21.70;97.80;;;;;;5095115;28;20428;-76
2022/05/10 09:53:26;;;;;;;13.13;5.80;;;21.80;96.70;;;;;;5077693;28;20040;-75
2022/05/10 09:56:05;;;;;;;12.73;6.25;;;21.90;97.70;;;;;;5077560;28;20058;-77
2022/05/10 09:58:38;;;;;;;9.65;6.38;;;21.90;98.50;;;;;;5094810;28;20532;-77
2022/05/10 10:01:07;;;;;;;10.73;7.18;;;22.10;99.00;;;;;;5095086;28;20047;-76
2022/05/10 10:03:32;;;;;;;10.80;6.72;;;22.50;99.20;;;;;;5077273;28;20330;-77
2022/05/10 10:06:25;;;;;;;10.23;6.07;;;22.90;97.80;;;;;;5094827;28;20093;-77
2022/05/10 10:08:57;;;;;;;10.07;6.88;;;23.20;98.10;;;;;;5090885;28;20472;-78
2022/05/10 10:11:31;;;;;;;13.30;7.18;;;23.60;98.80;;;;;;5094396;28;20044;-77
2022/05/10 10:13:59;;;;;;;14.38;7.40;;;24.00;98.20;;;;;;5076982;28;20035;-76
2022/05/10 10:16:31;;;;;;;10.68;5.90;;;24.00;97.40;;;;;;5077032;28;20048;-78
2022/05/10 10:19:35;;;;;;;8.85;6.20;;;23.90;95.80;;;;;;5094559;28;20153;-77
2022/05/10 10:22:07;;;;;;;11.85;5.70;;;23.80;95.70;;;;;;5052600;28;20052;-77
2022/05/10 10:24:45;;;;;;;10.88;5.43;;;23.70;96.20;;;;;;5056799;28;20051;-77
2022/05/10 10:27:34;;;;;;;14.55;5.95;;;23.60;94.90;;;;;;5073841;28;20044;-77
2022/05/10 10:30:38;;;;;;;10.77;5.60;;;23.40;94.70;;;;;;5073866;28;20369;-78
2022/05/10 10:33:14;;;;;;;20.42;5.53;;;23.30;95.00;;;;;;5056827;28;20036;-77
2022/05/10 10:35:54;;;;;;;16.10;4.90;;;23.20;93.10;;;;;;5056288;28;20056;-77
2022/05/10 10:38:31;;;;;;;;;;;23.00;92.90;;;;;;5074646;28;20123;-77
2022/05/10 10:41:03;;;;;;;6.80;4.40;;;22.80;93.40;;;;;;5074277;28;19943;-78
2022/05/10 10:43:38;;;;;;;7.72;5.05;;;22.70;93.10;;;;;;5056834;28;20040;-76
2022/05/10 10:46:29;;;;;;;7.85;4.18;;;22.50;92.80;;;;;;5056745;28;20184;-78
2022/05/10 10:48:58;;;;;;;7.70;4.47;;;22.40;93.20;;;;;;5056501;28;20493;-77
2022/05/10 10:51:32;;;;;;;8.55;5.03;;;22.30;93.60;;;;;;5074356;28;20080;-78
2022/05/10 10:54:01;;;;;;;10.95;5.07;;;22.20;94.00;;;;;;5056616;28;20116;-78
2022/05/10 10:56:41;;;;;;;10.13;5.00;;;22.10;94.30;;;;;;5074305;28;20097;-77
2022/05/10 10:59:18;;;;;;;8.60;5.35;;;22.10;93.90;;;;;;5055866;28;20078;-78
2022/05/10 11:02:02;;;;;;;9.70;5.38;;;22.00;94.60;;;;;;5080961;28;20362;-77
2022/05/10 11:04:46;;;;;;;11.00;6.00;;;22.10;95.60;;;;;;5054222;28;20036;-77
2022/05/10 11:07:37;;;;;;;8.77;6.30;;;22.10;95.80;;;;;;5054044;28;20049;-76
2022/05/10 11:10:34;;;;;;;9.55;6.78;;;22.30;96.20;;;;;;5053510;28;20053;-77
2022/05/10 11:13:14;;;;;;;9.50;6.53;;;22.50;96.20;;;;;;5036247;28;20057;-78
2022/05/10 11:15:44;;;;;;;10.10;5.47;;;22.60;95.70;;;;;;5053884;28;20048;-77
2022/05/10 11:18:28;;;;;;;11.18;6.68;;;22.70;95.30;;;;;;5053300;28;20053;-77
2022/05/10 11:21:05;;;;;;;11.23;7.07;;;22.70;95.20;;;;;;5065034;28;20413;-77
2022/05/10 11:23:53;;;;;;;10.38;6.43;;;22.70;94.90;;;;;;5075753;28;20357;-77
2022/05/10 11:26:37;;;;;;;17.13;8.18;;;22.80;96.00;;;;;;5092510;28;20047;-77
2022/05/10 11:29:14;;;;;;;15.30;8.10;;;22.80;95.70;;;;;;5093510;28;20101;-77
2022/05/10 11:31:45;;;;;;;15.68;7.93;;;23.00;95.00;;;;;;5093665;28;20378;-76
2022/05/10 11:34:31;;;;;;;18.25;7.97;;;23.10;94.50;;;;;;5093616;28;20047;-76
2022/05/10 11:37:01;;;;;;;12.18;7.05;;;23.20;94.20;;;;;;5093255;28;20055;-76
2022/05/10 11:39:30;;;;;;;16.50;6.10;;;23.40;93.80;;;;;;5090151;28;20040;-78
2022/05/10 11:42:23;;;;;;;11.27;6.07;;;23.70;92.90;;;;;;5093435;28;20105;-78
2022/05/10 11:45:32;;;;;;;13.05;5.93;;;23.70;93.20;;;;;;5093283;28;20098;-77
2022/05/10 11:48:08;;;;;;;11.35;5.10;;;23.60;93.90;;;;;;5080117;28;20051;-78
2022/05/10 11:54:22;;;;;;;14.13;5.60;;;23.70;93.90;;;;;;5092602;28;20062;-77
2022/05/10 11:56:50;;;;;;;16.33;5.32;;;23.60;93.20;;;;;;5093179;28;20051;-76
2022/05/10 11:59:27;;;;;;;16.50;4.97;;;23.40;92.70;;;;;;5092835;28;20503;-78
2022/05/10 12:01:54;;;;;;;16.95;5.18;;;23.20;91.90;;;;;;5075130;28;20070;-80
2022/05/10 12:04:39;;;;;;;8.30;4.15;;;23.00;92.10;;;;;;5093985;28;20086;-79
2022/05/10 12:07:20;;;;;;;18.38;4.43;;;23.00;92.60;;;;;;5074963;28;20044;-79
2022/05/10 12:09:52;;;;;;;12.82;4.03;;;22.90;92.10;;;;;;5074243;28;20054;-77
2022/05/10 12:12:33;;;;;;;19.65;4.60;;;23.00;92.10;;;;;;5074946;28;20040;-77
2022/05/10 12:21:49;;;;;;;20.70;4.35;;;23.20;92.10;;;;;;5092283;28;20067;-77
2022/05/10 12:24:21;;;;;;;18.60;4.30;;;23.30;91.60;;;;;;5092667;28;20048;-78
2022/05/10 12:26:49;;;;;;;14.85;3.15;;;23.40;90.50;;;;;;5057788;28;20172;-79
2022/05/10 12:29:40;;;;;;;20.45;4.13;;;23.50;91.00;;;;;;5092398;28;20040;-77
2022/05/10 12:32:21;;;;;;;11.25;3.42;;;23.70;89.60;;;;;;5092551;28;20044;-79
2022/05/10 12:35:02;;;;;;;37.80;6.07;;;23.70;88.10;;;;;;5092580;28;20079;-79
2022/05/10 12:37:28;;;;;;;26.30;4.18;;;23.50;86.40;;;;;;5074837;28;20048;-78
2022/05/10 12:40:09;;;;;;;31.60;4.55;;;23.30;85.70;;;;;;5092249;28;20115;-77
2022/05/10 12:42:53;;;;;;;9.20;3.10;;;23.20;84.70;;;;;;5092504;28;20353;-78
2022/05/10 12:45:37;;;;;;;13.07;3.10;;;23.00;85.50;;;;;;5092396;28;20044;-78
2022/05/10 12:48:19;;;;;;;17.58;3.90;;;22.90;86.70;;;;;;5092273;28;20153;-77
2022/05/10 12:51:03;;;;;;;15.70;3.70;;;22.80;88.00;;;;;;5074695;28;20044;-78
2022/05/10 12:53:38;;;;;;;8.82;3.13;;;22.60;87.20;;;;;;5074779;28;20048;-78
2022/05/10 12:56:21;;;;;;;13.18;2.92;;;22.50;89.70;;;;;;5074195;28;20063;-77
2022/05/10 12:58:51;;;;;;;23.33;3.80;;;22.50;87.90;;;;;;5092151;28;20093;-78
2022/05/10 13:01:19;;;;;;;8.80;2.63;;;22.30;85.40;;;;;;5092057;28;20043;-77
2022/05/10 13:04:22;;;;;;;11.68;2.70;;;22.00;83.80;;;;;;5074739;28;20119;-86
2022/05/10 13:07:37;;;;;;;16.95;3.63;;;21.80;84.20;;;;;;5047719;28;20345;-82
2022/05/10 13:10:08;;;;;;;9.23;2.63;;;21.60;85.20;;;;;;5075804;28;20105;-77
2022/05/10 13:12:45;;;;;;;8.68;1.77;;;21.60;85.10;;;;;;5092209;28;20040;-75
2022/05/10 13:15:17;;;;;;;15.40;2.30;;;21.40;80.20;;;;;;5092070;28;20040;-75
2022/05/10 13:17:49;;;;;;;15.90;2.35;;;21.30;80.10;;;;;;5088954;28;20343;-75
2022/05/10 13:20:20;;;;;;;9.85;1.38;;;21.20;78.50;;;;;;5091992;28;20088;-76
2022/05/10 13:22:56;;;;;;;10.93;1.35;;;21.10;77.50;;;;;;5095624;28;20048;-76
2022/05/10 13:25:34;;;;;;;11.50;1.48;;;21.10;76.00;;;;;;5095950;28;20051;-76